Ashford, Alabama
Current Conditions -  °F | °C
As of 9:53 AM on Friday 21 Nov 2014 (Local Time) from KDHN Reporting Station
Clear Clear  
Wind Chill: 62°   Ceiling: Unl
Heat Index: 62°   Visibility: 10mi
Dew Point: 46°   Wind: 6mph
Humidity: 56%   Direction: 40°NE
Pressure: 30.41"   Gusts: NA
Location:  31.18°N, 85.24°W
Report Text: KDHN 211553Z 04005KT 10SM CLR 17/08 A3041 RMK AO2 SLP297 T01670078
Loading
Personal Weather Stations






























Interactive Weather Map New forecast layout! Learn more

10-Day Weather Forecast

Advertisements
Track Severe Weather on mobile